Time;durP1;ratioP1;P1;durP2;ratioP2;P2;SDS_P1;SDS_P2;PMS_P1;PMS_P2;Temp;Humidity;BMP_temperature;BMP_pressure;BME280_temperature;BME280_humidity;BME280_pressure;Samples;Min_cycle;Max_cycle;Signal;HPM_P1;HPM_P2
2022/11/22 00:02:13;;;;;;;36.60;10.25;;;;;;;9.04;100.00;95924.38;6248417;22;20011;-84
2022/11/22 00:04:39;;;;;;;37.45;11.98;;;;;;;9.00;100.00;95926.72;6223556;22;20015;-86
2022/11/22 00:07:05;;;;;;;33.10;12.85;;;;;;;9.17;100.00;95920.44;6278565;22;20417;-87
2022/11/22 00:09:30;;;;;;;32.10;13.05;;;;;;;9.18;100.00;95923.84;6278985;22;20016;-89
2022/11/22 00:11:56;;;;;;;31.80;12.20;;;;;;;9.17;100.00;95922.28;6279412;22;20019;-87
2022/11/22 00:14:21;;;;;;;36.35;12.25;;;;;;;9.18;100.00;95922.00;6279009;22;20008;-89
2022/11/22 00:16:47;;;;;;;28.75;14.27;;;;;;;9.49;100.00;95911.53;6280507;22;20012;-89
2022/11/22 00:19:12;;;;;;;30.30;12.27;;;;;;;9.41;100.00;95919.91;6280565;22;20043;-88
2022/11/22 00:21:38;;;;;;;31.75;13.57;;;;;;;9.60;100.00;95919.34;6278765;22;20007;-85
2022/11/22 00:24:04;;;;;;;26.13;12.02;;;;;;;9.47;100.00;95911.00;6275915;22;20081;-86
2022/11/22 00:26:29;;;;;;;30.92;11.75;;;;;;;9.32;100.00;95916.25;6275623;22;20042;-84
2022/11/22 00:28:56;;;;;;;27.15;12.10;;;;;;;9.15;100.00;95906.84;6277786;22;20020;-87
2022/11/22 00:31:22;;;;;;;26.35;11.07;;;;;;;8.94;100.00;95912.06;6278478;22;20107;-84
2022/11/22 00:33:48;;;;;;;28.65;11.32;;;;;;;9.03;100.00;95909.72;6250725;22;20446;-84
2022/11/22 00:36:16;;;;;;;22.50;10.38;;;;;;;9.02;100.00;95912.59;6250448;22;20019;-86
2022/11/22 00:38:44;;;;;;;22.83;9.38;;;;;;;9.09;100.00;95919.13;6278001;22;20046;-85
2022/11/22 00:41:10;;;;;;;22.05;9.82;;;;;;;9.08;100.00;95908.94;6277768;22;20126;-86
2022/11/22 00:43:36;;;;;;;21.10;10.00;;;;;;;8.98;100.00;95913.13;6277890;22;20004;-85
2022/11/22 00:46:01;;;;;;;20.20;9.52;;;;;;;9.07;100.00;95915.22;6250151;22;20452;-85
2022/11/22 00:48:27;;;;;;;21.85;9.25;;;;;;;9.19;100.00;95920.97;6277318;22;20094;-85
2022/11/22 00:50:54;;;;;;;23.50;10.30;;;;;;;9.39;100.00;95907.09;6250378;22;20469;-85
2022/11/22 00:53:21;;;;;;;26.05;10.13;;;;;;;9.43;100.00;95905.50;6250345;22;20098;-85
2022/11/22 00:55:48;;;;;;;29.52;9.90;;;;;;;9.46;100.00;95909.44;6250895;22;20008;-84
2022/11/22 00:58:14;;;;;;;27.70;10.13;;;;;;;9.31;100.00;95904.22;6251186;22;20008;-85
2022/11/22 01:00:41;;;;;;;25.73;11.18;;;;;;;9.26;100.00;95894.53;6225202;22;20007;-84
2022/11/22 01:03:12;;;;;;;33.40;12.07;;;;;;;9.62;100.00;95893.69;6277977;22;20015;-83
2022/11/22 01:05:38;;;;;;;28.77;12.13;;;;;;;9.65;100.00;95898.41;6277979;22;20012;-85
2022/11/22 01:08:04;;;;;;;30.15;11.60;;;;;;;9.42;100.00;95884.81;6278272;22;20090;-84
2022/11/22 01:10:30;;;;;;;29.75;11.48;;;;;;;9.41;100.00;95899.75;6250572;22;20395;-84
2022/11/22 01:12:58;;;;;;;34.47;11.65;;;;;;;9.38;100.00;95908.13;6277914;22;20011;-86
2022/11/22 01:15:24;;;;;;;30.73;12.13;;;;;;;9.41;100.00;95896.34;6277534;22;20067;-85
2022/11/22 01:17:49;;;;;;;27.63;11.40;;;;;;;9.39;100.00;95901.06;6278235;22;20015;-87
2022/11/22 01:20:15;;;;;;;26.40;12.45;;;;;;;9.47;100.00;95894.50;6278131;22;20441;-85
2022/11/22 01:22:40;;;;;;;34.42;12.52;;;;;;;9.37;100.00;95905.78;6278325;22;20016;-87
2022/11/22 01:25:07;;;;;;;39.05;12.50;;;;;;;9.47;100.00;95913.63;6246134;23;20066;-85
2022/11/22 01:27:33;;;;;;;31.60;12.93;;;;;;;9.35;100.00;95895.59;6247305;23;20008;-85
2022/11/22 01:29:58;;;;;;;32.72;12.50;;;;;;;9.29;100.00;95894.81;6246975;23;20088;-85
2022/11/22 01:32:24;;;;;;;32.08;12.40;;;;;;;9.41;100.00;95896.34;6247377;22;20058;-84
2022/11/22 01:34:49;;;;;;;30.13;12.40;;;;;;;9.48;100.00;95899.47;6247880;22;20061;-85
2022/11/22 01:37:15;;;;;;;38.05;13.90;;;;;;;9.52;100.00;95895.28;6247598;22;20100;-86
2022/11/22 01:39:41;;;;;;;31.98;12.38;;;;;;;9.47;100.00;95900.53;6246647;22;20019;-85
2022/11/22 01:42:09;;;;;;;37.90;13.63;;;;;;;9.36;100.00;95896.34;6246460;22;20087;-86
2022/11/22 01:44:35;;;;;;;35.55;13.10;;;;;;;9.34;100.00;95888.78;6247383;22;20019;-86
2022/11/22 01:47:33;;;;;;;33.95;12.18;;;;;;;9.37;100.00;95893.47;6245459;23;20034;-86
2022/11/22 01:50:03;;;;;;;29.08;12.02;;;;;;;9.54;100.00;95895.78;6180578;22;20016;-87
2022/11/22 01:52:31;;;;;;;28.42;11.93;;;;;;;9.37;100.00;95929.34;6246565;23;20031;-88
2022/11/22 01:55:03;;;;;;;25.33;11.27;;;;;;;9.43;100.00;95912.56;6245489;23;20016;-86
2022/11/22 01:57:33;;;;;;;33.72;10.70;;;;;;;9.65;100.00;95898.41;6247277;22;20018;-86
2022/11/22 02:00:10;;;;;;;29.40;10.63;;;;;;;9.65;100.00;95893.16;6245649;23;20016;-84
2022/11/22 02:02:36;;;;;;;23.02;10.85;;;;;;;9.47;100.00;95895.31;6246964;22;20012;-86
2022/11/22 02:05:08;;;;;;;30.35;11.02;;;;;;;9.38;100.00;95894.25;6245869;23;20008;-84
2022/11/22 02:07:44;;;;;;;23.13;10.48;;;;;;;9.60;100.00;95896.56;6245699;23;20038;-85
2022/11/22 02:10:10;;;;;;;25.55;9.05;;;;;;;9.65;100.00;95903.66;6247206;22;20008;-84
2022/11/22 02:12:36;;;;;;;20.15;9.30;;;;;;;9.46;100.00;95898.97;6219953;23;20015;-86
2022/11/22 02:15:03;;;;;;;23.52;9.15;;;;;;;9.55;100.00;95889.50;6245800;23;20008;-85
2022/11/22 02:17:28;;;;;;;23.20;8.20;;;;;;;9.73;100.00;95890.00;6247359;22;20065;-84
2022/11/22 02:19:55;;;;;;;26.95;8.75;;;;;;;9.82;100.00;95891.00;6246717;22;20008;-84
2022/11/22 02:22:33;;;;;;;26.98;8.90;;;;;;;9.76;100.00;95899.94;6246898;22;20008;-86
2022/11/22 02:25:18;;;;;;;20.92;9.35;;;;;;;9.57;100.00;95899.72;6245031;23;20019;-84
2022/11/22 02:27:45;;;;;;;19.33;8.90;;;;;;;9.61;100.00;95899.97;6246720;22;20038;-84
2022/11/22 02:30:12;;;;;;;23.52;9.63;;;;;;;9.84;100.00;95895.97;6246967;22;20430;-85
2022/11/22 02:32:37;;;;;;;23.30;9.10;;;;;;;9.64;100.00;95899.47;6247319;22;20008;-86
2022/11/22 02:35:17;;;;;;;23.50;9.07;;;;;;;9.90;100.00;95889.66;6246649;23;20015;-86
2022/11/22 02:37:43;;;;;;;23.35;8.82;;;;;;;9.80;100.00;95895.72;6246783;22;20125;-85
2022/11/22 02:40:12;;;;;;;20.10;8.05;;;;;;;9.66;100.00;95892.13;6244812;23;20008;-86
2022/11/22 02:42:41;;;;;;;19.25;7.88;;;;;;;9.76;100.00;95897.31;6247132;23;20036;-85
2022/11/22 02:45:06;;;;;;;21.10;8.30;;;;;;;9.73;100.00;95887.38;6245304;23;20012;-85
2022/11/22 02:47:32;;;;;;;20.05;7.82;;;;;;;9.86;100.00;95894.69;6245409;23;20066;-86
2022/11/22 02:49:58;;;;;;;16.83;7.85;;;;;;;9.57;100.00;95892.66;6246893;22;20011;-85
2022/11/22 02:52:23;;;;;;;22.38;8.80;;;;;;;9.56;100.00;95885.06;6246484;23;20008;-85
2022/11/22 02:54:50;;;;;;;21.67;8.32;;;;;;;9.53;100.00;95885.56;6245562;23;20069;-86
2022/11/22 02:57:16;;;;;;;18.08;8.00;;;;;;;9.92;100.00;95894.66;6247191;23;20066;-85
2022/11/22 02:59:41;;;;;;;19.15;9.13;;;;;;;9.74;100.00;95896.03;6245320;23;20095;-85
2022/11/22 03:02:07;;;;;;;16.23;8.18;;;;;;;9.54;100.00;95897.66;6245345;23;20036;-84
2022/11/22 03:04:32;;;;;;;22.25;9.07;;;;;;;9.57;100.00;95895.25;6246667;22;20015;-85
2022/11/22 03:06:59;;;;;;;28.45;9.75;;;;;;;9.72;100.00;95891.03;6245602;23;20008;-86
2022/11/22 03:09:25;;;;;;;21.88;8.48;;;;;;;9.71;100.00;95892.88;6246225;23;20374;-86
2022/11/22 03:11:52;;;;;;;23.23;9.35;;;;;;;9.85;100.00;95892.31;6220786;23;20091;-85
2022/11/22 03:14:18;;;;;;;25.50;9.35;;;;;;;9.43;100.00;95892.41;6247545;22;20012;-85
2022/11/22 03:16:44;;;;;;;21.38;10.30;;;;;;;9.51;100.00;95885.84;6247430;22;20019;-87
2022/11/22 03:19:10;;;;;;;33.90;11.50;;;;;;;9.54;100.00;95881.94;6247618;22;20035;-85
2022/11/22 03:21:37;;;;;;;28.10;11.23;;;;;;;9.61;100.00;95881.63;6248762;22;20446;-85
2022/11/22 03:24:03;;;;;;;29.95;10.43;;;;;;;9.74;100.00;95886.31;6251877;22;20015;-86
2022/11/22 03:26:29;;;;;;;29.58;10.93;;;;;;;9.90;100.00;95881.03;6278197;22;20011;-84
2022/11/22 03:28:54;;;;;;;27.42;11.13;;;;;;;9.92;100.00;95889.41;6278156;22;20625;-85
2022/11/22 03:31:20;;;;;;;25.10;10.93;;;;;;;9.79;100.00;95888.16;6250606;22;20393;-86
2022/11/22 03:33:46;;;;;;;27.00;10.50;;;;;;;9.69;100.00;95886.34;6250942;22;20039;-86
2022/11/22 03:36:11;;;;;;;34.13;11.77;;;;;;;9.52;100.00;95887.44;6250450;22;20014;-85
2022/11/22 03:38:37;;;;;;;30.40;10.82;;;;;;;9.38;100.00;95899.50;6249918;22;20015;-86
2022/11/22 03:41:04;;;;;;;31.30;10.27;;;;;;;9.54;100.00;95887.94;6277003;22;20015;-86
2022/11/22 03:43:29;;;;;;;27.85;10.32;;;;;;;9.42;100.00;95888.22;6250061;22;20080;-84
2022/11/22 03:45:58;;;;;;;45.65;12.55;;;;;;;9.34;100.00;95886.16;6249904;22;20018;-87
2022/11/22 03:48:24;;;;;;;36.42;11.15;;;;;;;9.48;100.00;95889.00;6224756;22;20015;-85
2022/11/22 03:50:52;;;;;;;26.08;9.82;;;;;;;9.43;100.00;95896.84;6249790;22;20035;-85
2022/11/22 03:53:19;;;;;;;28.73;9.95;;;;;;;9.44;100.00;95903.69;6276417;22;20003;-86
2022/11/22 03:55:48;;;;;;;28.00;11.30;;;;;;;9.50;100.00;95900.00;6277721;22;20078;-84
2022/11/22 03:58:17;;;;;;;27.48;10.45;;;;;;;9.26;100.00;95908.41;6276595;22;20322;-85
2022/11/22 04:00:46;;;;;;;27.33;10.20;;;;;;;9.22;100.00;95907.34;6276503;22;20316;-86
2022/11/22 04:03:12;;;;;;;27.80;10.38;;;;;;;9.19;100.00;95915.72;6249243;22;20085;-87
2022/11/22 04:05:38;;;;;;;28.17;11.57;;;;;;;9.32;100.00;95917.03;6276998;22;20007;-85
2022/11/22 04:08:03;;;;;;;29.42;10.45;;;;;;;9.10;100.00;95917.31;6276756;22;20015;-85
2022/11/22 04:10:29;;;;;;;20.90;10.15;;;;;;;9.56;100.00;95898.94;6250053;22;20078;-85
2022/11/22 04:12:57;;;;;;;25.63;9.90;;;;;;;9.21;100.00;95911.00;6276632;22;20007;-86
2022/11/22 04:15:24;;;;;;;31.83;9.55;;;;;;;9.26;100.00;95903.19;6276346;22;20011;-85
2022/11/22 04:17:49;;;;;;;26.63;9.50;;;;;;;9.09;100.00;95910.50;6277006;22;20012;-86
2022/11/22 04:23:25;;;;;;;20.17;8.90;;;;;;;9.53;100.00;95896.84;6276637;22;20106;-85
2022/11/22 04:25:53;;;;;;;26.45;9.55;;;;;;;9.56;100.00;95895.53;6249828;22;20050;-87
2022/11/22 04:28:21;;;;;;;24.70;9.27;;;;;;;9.76;100.00;95907.78;6277422;22;20099;-86
2022/11/22 04:33:32;;;;;;;20.05;9.52;;;;;;;9.25;100.00;95906.84;6277572;22;20003;-86
2022/11/22 04:35:58;;;;;;;29.73;9.80;;;;;;;9.25;100.00;95900.81;6277393;22;20035;-86
2022/11/22 04:38:25;;;;;;;23.23;9.15;;;;;;;9.49;100.00;95903.66;6276663;22;20012;-86
2022/11/22 04:40:51;;;;;;;25.90;9.30;;;;;;;9.56;100.00;95911.25;6277039;22;20020;-86
2022/11/22 04:46:12;;;;;;;36.28;10.25;;;;;;;9.57;100.00;95905.75;6276369;22;20020;-85
2022/11/22 04:48:38;;;;;;;28.05;8.68;;;;;;;9.45;100.00;95913.09;6276430;22;20018;-85
2022/11/22 04:53:49;;;;;;;23.23;7.85;;;;;;;9.56;100.00;95925.13;6276246;22;20012;-85
2022/11/22 04:56:15;;;;;;;20.33;7.55;;;;;;;9.64;100.00;95910.69;6249295;22;20022;-84
2022/11/22 04:58:41;;;;;;;27.27;7.45;;;;;;;9.44;100.00;95924.63;6249195;22;20433;-83
2022/11/22 05:01:08;;;;;;;26.27;8.10;;;;;;;9.40;100.00;95919.13;6275732;22;20004;-84
2022/11/22 05:03:33;;;;;;;16.45;7.63;;;;;;;9.26;100.00;95921.50;6276152;22;20012;-85
2022/11/22 05:06:03;;;;;;;20.35;7.10;;;;;;;9.33;100.00;95921.22;6276207;22;20023;-84
2022/11/22 05:08:29;;;;;;;26.48;7.32;;;;;;;9.25;100.00;95921.75;6276318;22;20030;-85
2022/11/22 05:10:56;;;;;;;23.92;7.95;;;;;;;9.44;100.00;95908.91;6248943;22;20012;-84
2022/11/22 05:13:41;;;;;;;25.38;8.13;;;;;;;9.27;100.00;95920.44;6276336;22;20035;-84
2022/11/22 05:16:09;;;;;;;19.00;7.50;;;;;;;9.20;100.00;95934.84;6250527;22;20430;-84
2022/11/22 05:18:35;;;;;;;26.77;7.63;;;;;;;9.32;100.00;95924.88;6277646;22;20008;-85
2022/11/22 05:21:05;;;;;;;34.08;8.10;;;;;;;9.27;100.00;95930.91;6277088;22;20011;-86
2022/11/22 05:26:15;;;;;;;24.58;8.18;;;;;;;9.44;100.00;95927.25;6247126;23;20015;-84
2022/11/22 05:28:41;;;;;;;19.92;7.20;;;;;;;9.23;100.00;95929.09;6220436;23;20086;-87
2022/11/22 05:31:09;;;;;;;24.45;7.05;;;;;;;9.16;100.00;95931.97;6247535;23;20378;-85
2022/11/22 05:33:36;;;;;;;22.85;6.85;;;;;;;9.28;100.00;95929.06;6246919;23;20328;-84
2022/11/22 05:36:02;;;;;;;25.00;7.03;;;;;;;9.50;100.00;95933.25;6246980;22;20062;-84
2022/11/22 05:38:28;;;;;;;17.52;6.78;;;;;;;9.39;100.00;95940.31;6247135;22;20475;-85
2022/11/22 05:40:53;;;;;;;40.78;7.97;;;;;;;9.27;100.00;95938.78;6245805;23;20087;-86
2022/11/22 05:43:19;;;;;;;21.90;7.38;;;;;;;9.24;100.00;95933.28;6247657;23;20012;-84
2022/11/22 05:45:45;;;;;;;22.77;7.10;;;;;;;9.19;100.00;95938.50;6245790;23;20019;-84
2022/11/22 05:48:10;;;;;;;19.80;7.30;;;;;;;9.29;100.00;95938.50;6246145;23;20334;-84
2022/11/22 05:50:36;;;;;;;26.25;7.72;;;;;;;9.59;100.00;95944.75;6247139;23;20008;-82
2022/11/22 05:53:02;;;;;;;35.00;8.23;;;;;;;9.55;100.00;95952.34;6247067;22;20012;-83
2022/11/22 05:55:29;;;;;;;26.80;7.28;;;;;;;9.67;100.00;95948.69;6245965;23;20016;-84
2022/11/22 05:57:58;;;;;;;21.25;7.40;;;;;;;9.42;100.00;95952.88;6247308;22;20012;-84
2022/11/22 06:00:24;;;;;;;16.60;6.80;;;;;;;9.51;100.00;95959.16;6246946;22;20095;-85
2022/11/22 06:02:50;;;;;;;23.00;7.28;;;;;;;9.46;100.00;95964.41;6245505;23;20008;-84
2022/11/22 06:05:15;;;;;;;24.52;7.35;;;;;;;9.20;100.00;95968.88;6246808;23;20061;-85
2022/11/22 06:07:41;;;;;;;19.50;6.90;;;;;;;9.38;100.00;95962.31;6246940;22;20019;-83
2022/11/22 06:10:07;;;;;;;22.00;7.00;;;;;;;9.39;100.00;95963.88;6245596;23;20012;-83
2022/11/22 06:12:32;;;;;;;24.65;7.53;;;;;;;9.44;100.00;95971.75;6245474;23;20093;-85
2022/11/22 06:14:58;;;;;;;18.77;6.18;;;;;;;9.26;100.00;95960.75;6246759;23;20008;-84
2022/11/22 06:17:23;;;;;;;23.83;7.43;;;;;;;9.17;100.00;95987.72;6220467;23;20051;-84
2022/11/22 06:19:49;;;;;;;22.33;6.30;;;;;;;9.31;100.00;95967.81;6246572;22;20012;-84
2022/11/22 06:22:14;;;;;;;25.45;6.50;;;;;;;9.44;100.00;95974.38;6245471;23;20078;-84
2022/11/22 06:24:41;;;;;;;16.35;5.75;;;;;;;9.36;100.00;95974.88;6220162;23;20016;-85
2022/11/22 06:27:08;;;;;;;18.67;6.13;;;;;;;9.08;100.00;95971.75;6247915;22;20011;-84
2022/11/22 06:29:34;;;;;;;17.10;5.68;;;;;;;9.48;100.00;95966.75;6247873;22;20014;-83
2022/11/22 06:31:59;;;;;;;19.38;5.95;;;;;;;9.18;100.00;95968.34;6247338;22;20043;-84
2022/11/22 06:34:25;;;;;;;19.92;5.78;;;;;;;9.04;100.00;95973.28;6246092;23;20031;-86
2022/11/22 06:36:50;;;;;;;15.93;5.35;;;;;;;9.18;100.00;95976.97;6249595;22;20046;-84
2022/11/22 06:39:16;;;;;;;16.38;4.50;;;;;;;8.90;100.00;95968.56;6247426;23;20008;-83
2022/11/22 06:41:42;;;;;;;20.42;5.50;;;;;;;9.07;100.00;95973.56;6244980;23;20083;-83
2022/11/22 06:44:08;;;;;;;17.70;5.47;;;;;;;9.29;100.00;95978.56;6246003;22;20035;-84
2022/11/22 06:46:35;;;;;;;15.90;5.90;;;;;;;9.41;100.00;95980.09;6246168;22;20008;-83
2022/11/22 06:49:01;;;;;;;16.58;5.38;;;;;;;9.16;100.00;95970.44;6246338;22;20016;-82
2022/11/22 06:51:29;;;;;;;16.73;6.13;;;;;;;9.49;100.00;95979.59;6246222;22;20012;-84
2022/11/22 06:53:55;;;;;;;28.67;6.40;;;;;;;9.24;100.00;95978.56;6248180;22;20099;-85
2022/11/22 06:56:24;;;;;;;23.77;7.10;;;;;;;9.13;100.00;95990.06;6220643;23;20064;-84
2022/11/22 06:58:51;;;;;;;18.70;6.35;;;;;;;9.14;100.00;95989.81;6247322;22;20461;-85
2022/11/22 07:01:19;;;;;;;27.92;7.15;;;;;;;9.36;100.00;95982.72;6249407;23;20035;-85
2022/11/22 07:03:45;;;;;;;29.67;7.68;;;;;;;9.44;100.00;96000.56;6246666;23;20031;-84
2022/11/22 07:06:12;;;;;;;30.33;9.00;;;;;;;9.38;100.00;96004.19;6245734;23;20015;-83
2022/11/22 07:08:40;;;;;;;28.50;8.32;;;;;;;9.45;100.00;95991.66;6247558;22;20008;-87
2022/11/22 07:11:11;;;;;;;24.42;7.82;;;;;;;9.46;100.00;95995.84;6248584;22;20058;-86
2022/11/22 07:13:37;;;;;;;23.90;8.07;;;;;;;9.18;100.00;95995.28;6248262;22;20004;-85
2022/11/22 07:16:05;;;;;;;23.90;7.68;;;;;;;9.24;100.00;96017.00;6248583;22;20497;-85
2022/11/22 07:18:32;;;;;;;29.10;8.02;;;;;;;9.31;100.00;96006.28;6248432;22;20008;-85
2022/11/22 07:21:01;;;;;;;24.13;8.00;;;;;;;9.36;100.00;96011.53;6247373;23;20016;-86
2022/11/22 07:23:27;;;;;;;25.20;9.95;;;;;;;9.46;100.00;96011.53;6258667;22;20090;-83
2022/11/22 07:25:53;;;;;;;21.95;6.90;;;;;;;9.18;100.00;96008.38;6281742;22;20401;-83
2022/11/22 07:28:18;;;;;;;31.17;7.38;;;;;;;9.27;100.00;96014.69;6280772;22;20019;-84
2022/11/22 07:30:44;;;;;;;21.63;7.93;;;;;;;9.36;100.00;96006.28;6277322;22;20015;-86
2022/11/22 07:33:10;;;;;;;27.17;7.78;;;;;;;9.46;100.00;96031.69;6252334;22;20398;-86
2022/11/22 07:35:36;;;;;;;27.60;8.35;;;;;;;9.43;100.00;96009.44;6250905;22;20011;-83
2022/11/22 07:38:02;;;;;;;26.23;7.80;;;;;;;9.50;100.00;96017.81;6278073;22;20434;-88
2022/11/22 07:40:28;;;;;;;28.95;8.57;;;;;;;9.25;100.00;96026.44;6279830;22;20429;-86
2022/11/22 07:42:53;;;;;;;25.73;8.15;;;;;;;9.35;100.00;96025.66;6252559;22;20019;-88
2022/11/22 07:45:19;;;;;;;30.55;8.07;;;;;;;9.42;100.00;96034.84;6255270;22;20004;-86
2022/11/22 07:47:47;;;;;;;25.85;8.43;;;;;;;9.83;100.00;96041.91;6223876;22;20007;-81
2022/11/22 07:50:13;;;;;;;29.92;8.57;;;;;;;9.54;100.00;96034.56;6273293;22;20043;-83
2022/11/22 07:52:38;;;;;;;29.77;8.32;;;;;;;9.66;100.00;96038.78;6274751;22;20016;-82
2022/11/22 07:55:05;;;;;;;21.55;7.82;;;;;;;9.40;100.00;96038.75;6274696;22;20419;-83
2022/11/22 07:57:31;;;;;;;18.75;8.18;;;;;;;9.36;100.00;96045.56;6274968;22;20430;-82
2022/11/22 07:59:57;;;;;;;24.73;9.25;;;;;;;9.42;100.00;96061.00;6274667;22;20011;-82
2022/11/22 08:02:23;;;;;;;35.72;9.00;;;;;;;9.52;100.00;96067.28;6274281;22;20010;-82
2022/11/22 08:04:49;;;;;;;28.88;7.93;;;;;;;9.50;100.00;96064.16;6247215;22;20008;-82
2022/11/22 08:07:14;;;;;;;21.88;8.55;;;;;;;9.74;100.00;96059.19;6274517;22;20450;-84
2022/11/22 08:09:40;;;;;;;20.23;9.13;;;;;;;9.53;100.00;96069.66;6252297;22;20047;-88
2022/11/22 08:12:05;;;;;;;35.90;9.73;;;;;;;9.74;100.00;96064.44;6275555;22;20500;-82
2022/11/22 08:14:31;;;;;;;27.88;8.63;;;;;;;9.68;100.00;96079.34;6274556;22;20007;-84
2022/11/22 08:16:57;;;;;;;25.83;7.55;;;;;;;9.56;100.00;96081.47;6249004;22;20460;-85
2022/11/22 08:19:22;;;;;;;23.63;8.00;;;;;;;9.54;100.00;96081.69;6275880;22;20014;-85
2022/11/22 08:21:48;;;;;;;25.38;8.30;;;;;;;9.79;100.00;96087.22;6275841;22;20036;-84
2022/11/22 08:24:15;;;;;;;29.60;8.32;;;;;;;9.90;100.00;96080.16;6243262;23;20019;-87
2022/11/22 08:26:43;;;;;;;19.13;8.02;;;;;;;9.95;100.00;96085.38;6244734;23;20012;-87
2022/11/22 08:29:11;;;;;;;26.65;8.30;;;;;;;10.03;100.00;96082.25;6248360;22;20015;-88
2022/11/22 08:31:38;;;;;;;33.05;8.95;;;;;;;10.05;100.00;96085.38;6246908;23;20083;-86
2022/11/22 08:34:04;;;;;;;21.17;8.57;;;;;;;9.79;100.00;96088.00;6226083;23;20103;-89
2022/11/22 08:36:30;;;;;;;28.17;8.75;;;;;;;9.83;100.00;96086.44;6246512;22;21501;-84
2022/11/22 08:38:57;;;;;;;30.08;9.18;;;;;;;9.79;100.00;96085.38;6246537;22;20011;-85
2022/11/22 08:41:23;;;;;;;23.23;7.97;;;;;;;9.79;100.00;96097.69;6245398;22;20009;-85
2022/11/22 08:43:50;;;;;;;23.48;8.00;;;;;;;9.53;100.00;96090.59;6245534;22;20012;-86
2022/11/22 08:46:16;;;;;;;39.10;8.20;;;;;;;9.96;100.00;96086.94;6245963;22;20347;-85
2022/11/22 08:48:41;;;;;;;31.10;9.65;;;;;;;9.90;100.00;96099.25;6246686;22;20099;-84
2022/11/22 08:51:09;;;;;;;25.75;8.27;;;;;;;9.59;100.00;96099.25;6246341;23;20431;-85
2022/11/22 08:53:38;;;;;;;31.52;8.68;;;;;;;9.78;100.00;96089.03;6247882;22;20023;-85
2022/11/22 08:56:08;;;;;;;29.25;8.18;;;;;;;9.90;100.00;96103.72;6247651;22;20069;-84
2022/11/22 08:58:35;;;;;;;22.15;8.10;;;;;;;9.57;100.00;96112.59;6247639;22;20012;-85
2022/11/22 09:01:14;;;;;;;19.60;7.38;;;;;;;9.69;100.00;96129.91;6246961;22;20083;-84
2022/11/22 09:03:41;;;;;;;27.83;8.40;;;;;;;9.92;100.00;96128.59;6243531;23;20008;-82
2022/11/22 09:06:10;;;;;;;19.92;8.63;;;;;;;9.83;100.00;96110.03;6245379;22;20019;-84
2022/11/22 09:08:36;;;;;;;16.77;7.53;;;;;;;9.89;100.00;96123.13;6244889;23;20012;-86
2022/11/22 09:11:03;;;;;;;27.50;7.75;;;;;;;9.91;100.00;96121.78;6246985;22;20427;-86
2022/11/22 09:13:29;;;;;;;19.95;8.18;;;;;;;9.60;100.00;96131.47;6245977;22;20103;-85
2022/11/22 09:16:04;;;;;;;20.77;7.65;;;;;;;9.86;100.00;96129.66;6246406;22;20062;-87
2022/11/22 09:18:29;;;;;;;29.27;8.77;;;;;;;9.71;100.00;96122.56;6246190;23;20077;-85
2022/11/22 09:21:06;;;;;;;24.50;7.75;;;;;;;9.98;100.00;96132.00;6244865;23;20000;-86
2022/11/22 09:23:33;;;;;;;18.85;8.25;;;;;;;9.84;100.00;96129.13;6219185;23;20045;-85
2022/11/22 09:26:05;;;;;;;23.77;8.82;;;;;;;10.11;100.00;96131.50;6246173;22;20031;-85
2022/11/22 09:28:31;;;;;;;28.88;9.57;;;;;;;10.03;100.00;96128.59;6245007;23;20022;-84
2022/11/22 09:30:59;;;;;;;29.33;9.07;;;;;;;10.19;100.00;96129.38;6246470;23;20016;-84
2022/11/22 09:33:25;;;;;;;24.35;8.13;;;;;;;9.83;100.00;96132.78;6245364;23;20008;-84
2022/11/22 09:35:51;;;;;;;24.98;10.43;;;;;;;10.01;100.00;96134.09;6247185;22;20023;-84
2022/11/22 09:38:16;;;;;;;26.95;8.88;;;;;;;9.95;100.00;96137.78;6246731;23;20342;-85
2022/11/22 09:40:46;;;;;;;26.92;9.15;;;;;;;9.92;100.00;96149.56;6246496;22;20016;-85
2022/11/22 09:43:42;;;;;;;36.88;11.43;;;;;;;10.14;100.00;96149.31;6246803;22;20461;-85
2022/11/22 09:46:21;;;;;;;33.92;10.05;;;;;;;9.95;100.00;96146.44;6246935;22;20508;-82
2022/11/22 09:49:04;;;;;;;33.88;9.27;;;;;;;10.15;100.00;96150.88;6244503;23;20425;-84
2022/11/22 09:51:38;;;;;;;26.52;8.73;;;;;;;10.37;100.00;96152.44;6246377;22;20143;-83
2022/11/22 09:54:09;;;;;;;28.60;8.73;;;;;;;10.33;100.00;96154.00;6244734;23;20078;-83
2022/11/22 09:56:37;;;;;;;34.35;9.23;;;;;;;10.28;100.00;96157.41;6245310;23;20019;-83
2022/11/22 09:59:14;;;;;;;30.45;8.98;;;;;;;10.11;100.00;96154.28;6246506;22;20043;-84
2022/11/22 10:01:44;;;;;;;33.47;9.63;;;;;;;10.09;100.00;96162.41;6245938;22;20343;-83
2022/11/22 10:04:16;;;;;;;29.13;8.98;;;;;;;10.00;100.00;96164.78;6245981;22;20094;-84
2022/11/22 10:06:45;;;;;;;23.58;8.73;;;;;;;10.07;100.00;96161.91;6244717;23;20008;-85
2022/11/22 10:09:30;;;;;;;20.58;8.60;;;;;;;10.05;100.00;96171.84;6244492;23;20061;-85
2022/11/22 10:11:58;;;;;;;22.67;8.48;;;;;;;10.25;100.00;96168.44;6243999;23;20031;-84
2022/11/22 10:14:39;;;;;;;24.10;8.93;;;;;;;10.30;100.00;96170.28;6245823;22;20019;-84
2022/11/22 10:17:40;;;;;;;32.08;8.77;;;;;;;10.13;100.00;96163.47;6246264;23;20012;-84
2022/11/22 10:20:35;;;;;;;26.65;9.20;;;;;;;10.24;100.00;96171.34;6246402;23;20443;-84
2022/11/22 10:23:02;;;;;;;30.17;8.52;;;;;;;10.50;100.00;96168.72;6246607;22;20070;-85
2022/11/22 10:25:47;;;;;;;18.25;9.00;;;;;;;10.49;100.00;96173.16;6276448;22;20011;-84
2022/11/22 10:28:23;;;;;;;17.25;7.60;;;;;;;10.20;100.00;96171.06;6276481;22;20012;-84
2022/11/22 10:31:06;;;;;;;30.67;9.25;;;;;;;10.17;100.00;96178.66;6250158;22;20042;-85
2022/11/22 10:33:52;;;;;;;29.77;8.52;;;;;;;10.33;100.00;96174.97;6250029;22;20090;-85
2022/11/22 10:36:50;;;;;;;27.05;8.32;;;;;;;10.46;100.00;96191.28;6249824;22;20372;-84
2022/11/22 10:39:45;;;;;;;20.10;7.28;;;;;;;10.52;100.00;96180.53;6230380;22;20016;-85
2022/11/22 10:42:22;;;;;;;24.10;7.85;;;;;;;10.55;100.00;96187.84;6276988;22;20015;-85
2022/11/22 10:45:10;;;;;;;27.77;8.40;;;;;;;10.46;100.00;96183.41;6250600;22;20491;-86
2022/11/22 10:47:52;;;;;;;20.65;7.45;;;;;;;10.60;100.00;96183.66;6277328;22;20000;-87
2022/11/22 10:50:42;;;;;;;22.17;7.50;;;;;;;10.46;100.00;96188.66;6248447;22;20019;-86
2022/11/22 10:53:24;;;;;;;20.42;7.35;;;;;;;10.65;100.00;96186.25;6276771;22;20061;-83
2022/11/22 10:56:16;;;;;;;17.25;6.72;;;;;;;10.66;100.00;96180.75;6249482;22;20446;-84
2022/11/22 10:59:04;;;;;;;26.45;6.93;;;;;;;10.73;100.00;96179.69;6249063;22;20039;-83
2022/11/22 11:01:49;;;;;;;19.42;5.70;;;;;;;10.54;100.00;96182.84;6276367;22;20004;-83
2022/11/22 11:04:17;;;;;;;16.63;6.22;;;;;;;10.48;100.00;96186.53;6249364;22;20022;-84
2022/11/22 11:06:46;;;;;;;19.30;7.15;;;;;;;10.56;100.00;96193.88;6276647;22;20350;-82
2022/11/22 11:09:33;;;;;;;28.38;7.10;;;;;;;10.68;100.00;96189.13;6249291;22;20086;-84
2022/11/22 11:12:03;;;;;;;23.33;6.88;;;;;;;10.57;100.00;96191.00;6276589;22;20014;-82
2022/11/22 11:14:44;;;;;;;18.52;6.03;;;;;;;10.59;100.00;96203.06;6249547;22;20011;-83
2022/11/22 11:17:17;;;;;;;17.80;5.95;;;;;;;10.58;100.00;96199.63;6224491;22;20430;-83
2022/11/22 11:19:46;;;;;;;25.13;6.67;;;;;;;10.74;100.00;96210.09;6275932;22;20093;-83
2022/11/22 11:22:20;;;;;;;20.90;6.68;;;;;;;10.64;100.00;96211.72;6248782;22;20426;-82
2022/11/22 11:24:46;;;;;;;20.40;6.00;;;;;;;10.55;100.00;96221.16;6276617;22;20401;-83
2022/11/22 11:27:15;;;;;;;16.10;5.45;;;;;;;10.40;100.00;96217.47;6276389;22;20015;-85
2022/11/22 11:29:54;;;;;;;16.02;4.88;;;;;;;10.61;100.00;96217.50;6222243;22;20438;-84
2022/11/22 11:32:20;;;;;;;27.10;7.43;;;;;;;10.57;100.00;96227.72;6249604;22;20003;-83
2022/11/22 11:35:06;;;;;;;15.98;5.60;;;;;;;10.76;100.00;96229.78;6276747;22;20065;-85
2022/11/22 11:37:37;;;;;;;40.55;7.75;;;;;;;10.94;100.00;96225.81;6275908;22;20437;-82
2022/11/22 11:40:25;;;;;;;64.32;10.38;;;;;;;11.11;100.00;96228.16;6248397;22;20026;-84
2022/11/22 11:43:15;;;;;;;15.35;5.20;;;;;;;10.94;100.00;96235.53;6276444;22;20120;-83
2022/11/22 11:45:41;;;;;;;54.30;8.45;;;;;;;10.90;100.00;96227.41;6276177;22;20012;-82